Time;durP1;ratioP1;P1;durP2;ratioP2;P2;SDS_P1;SDS_P2;PMS_P1;PMS_P2;Temp;Humidity;BMP_temperature;BMP_pressure;BME280_temperature;BME280_humidity;BME280_pressure;Samples;Min_cycle;Max_cycle;Signal;HPM_P1;HPM_P2
2023/02/15 00:01:52;;;;;;;13.85;11.52;;;20.60;37.90;;;;;;5035151;28;20021;-52
2023/02/15 00:04:20;;;;;;;14.45;11.68;;;20.60;37.70;;;;;;5035634;28;20413;-47
2023/02/15 00:06:47;;;;;;;15.85;12.05;;;20.60;37.70;;;;;;5041835;28;20039;-55
2023/02/15 00:09:13;;;;;;;13.45;11.18;;;20.60;37.70;;;;;;5034195;28;20038;-55
2023/02/15 00:11:39;;;;;;;14.68;11.45;;;20.60;37.70;;;;;;5034269;28;20338;-48
2023/02/15 00:14:17;;;;;;;13.60;11.23;;;20.60;37.70;;;;;;5037189;28;20068;-53
2023/02/15 00:16:44;;;;;;;13.40;11.35;;;20.60;37.70;;;;;;5056172;28;20044;-53
2023/02/15 00:19:11;;;;;;;13.52;11.32;;;20.60;37.60;;;;;;5057707;28;20360;-54
2023/02/15 00:21:38;;;;;;;14.85;11.05;;;20.60;37.60;;;;;;5058839;28;20061;-50
2023/02/15 00:24:06;;;;;;;14.68;11.15;;;20.60;37.60;;;;;;5054264;28;20083;-54
2023/02/15 00:26:33;;;;;;;12.90;10.77;;;20.60;37.60;;;;;;5055114;28;20021;-53
2023/02/15 00:28:59;;;;;;;13.77;11.13;;;20.60;37.60;;;;;;5052913;28;20044;-53
2023/02/15 00:31:27;;;;;;;13.13;10.55;;;20.60;37.60;;;;;;5057262;28;20032;-52
2023/02/15 00:33:53;;;;;;;12.27;10.30;;;20.60;37.70;;;;;;5053394;28;20380;-54
2023/02/15 00:36:19;;;;;;;13.25;10.82;;;20.50;37.60;;;;;;5056265;28;20021;-50
2023/02/15 00:38:47;;;;;;;14.85;10.90;;;20.60;37.60;;;;;;5056795;28;20082;-51
2023/02/15 00:41:13;;;;;;;13.23;10.93;;;20.50;37.50;;;;;;5056483;28;20039;-53
2023/02/15 00:43:39;;;;;;;14.10;11.00;;;20.50;37.50;;;;;;5055080;28;20032;-54
2023/02/15 00:46:06;;;;;;;12.07;10.23;;;20.50;37.50;;;;;;5035960;28;20440;-50
2023/02/15 00:48:33;;;;;;;12.52;10.27;;;20.50;37.50;;;;;;5057441;28;20048;-53
2023/02/15 00:50:59;;;;;;;13.85;10.43;;;20.50;37.50;;;;;;5053159;28;20064;-52
2023/02/15 00:53:26;;;;;;;12.18;10.27;;;20.50;37.50;;;;;;5040678;28;20033;-50
2023/02/15 00:55:52;;;;;;;10.93;9.32;;;20.50;37.50;;;;;;5053185;28;20479;-50
2023/02/15 00:58:18;;;;;;;10.77;9.00;;;20.50;37.50;;;;;;5036529;28;20306;-53
2023/02/15 01:00:46;;;;;;;11.07;9.23;;;20.50;37.40;;;;;;5036216;28;20110;-54
2023/02/15 01:03:13;;;;;;;11.73;9.38;;;20.50;37.40;;;;;;5055880;28;20033;-54
2023/02/15 01:05:40;;;;;;;12.10;9.32;;;20.50;37.40;;;;;;5037200;28;20086;-51
2023/02/15 01:08:06;;;;;;;10.82;9.23;;;20.50;37.40;;;;;;5057133;28;20017;-53
2023/02/15 01:10:33;;;;;;;10.00;8.43;;;20.50;37.30;;;;;;5053350;28;20036;-52
2023/02/15 01:12:58;;;;;;;11.82;9.75;;;20.50;37.30;;;;;;5051526;28;20025;-53
2023/02/15 01:15:26;;;;;;;11.50;9.77;;;20.50;37.20;;;;;;5053631;28;20053;-54
2023/02/15 01:17:53;;;;;;;11.10;9.52;;;20.50;37.20;;;;;;5051910;28;20025;-54
2023/02/15 01:20:23;;;;;;;10.40;8.82;;;20.50;37.10;;;;;;5036379;28;20090;-51
2023/02/15 01:22:49;;;;;;;11.27;9.07;;;20.50;37.00;;;;;;5056964;28;20031;-52
2023/02/15 01:25:20;;;;;;;10.38;8.40;;;20.40;37.00;;;;;;5055382;28;20079;-54
2023/02/15 01:27:47;;;;;;;10.27;8.98;;;20.40;37.00;;;;;;5057057;28;20033;-50
2023/02/15 01:30:14;;;;;;;10.77;9.05;;;20.40;37.00;;;;;;5041580;28;20067;-51
2023/02/15 01:32:41;;;;;;;9.32;7.72;;;20.40;37.00;;;;;;5057155;28;20162;-54
2023/02/15 01:35:08;;;;;;;11.20;8.95;;;20.40;37.00;;;;;;5054633;28;20031;-48
2023/02/15 01:37:35;;;;;;;11.07;8.80;;;20.40;37.00;;;;;;5054947;28;20037;-51
2023/02/15 01:40:02;;;;;;;10.40;8.63;;;20.40;37.00;;;;;;5042165;28;20523;-55
2023/02/15 01:42:29;;;;;;;10.05;8.18;;;20.40;37.00;;;;;;5057648;28;20029;-54
2023/02/15 01:45:24;;;;;;;9.05;7.95;;;20.40;37.00;;;;;;5030765;28;20562;-52
2023/02/15 01:47:53;;;;;;;11.00;7.72;;;20.40;37.00;;;;;;5054201;28;20403;-53
2023/02/15 01:50:38;;;;;;;12.40;8.52;;;20.40;37.00;;;;;;5037973;28;20072;-53
2023/02/15 01:53:09;;;;;;;9.77;7.80;;;20.40;37.00;;;;;;5055274;28;20126;-53
2023/02/15 01:55:43;;;;;;;11.45;8.77;;;20.40;37.00;;;;;;5052394;28;20445;-55
2023/02/15 01:58:09;;;;;;;9.80;7.88;;;20.40;36.90;;;;;;5051280;28;20072;-51
2023/02/15 02:00:35;;;;;;;9.38;8.23;;;20.40;36.90;;;;;;5037452;28;20067;-53
2023/02/15 02:03:03;;;;;;;10.40;8.20;;;20.40;36.90;;;;;;5051289;28;20040;-54
2023/02/15 02:05:29;;;;;;;10.40;8.23;;;20.40;36.90;;;;;;5051024;28;20033;-52
2023/02/15 02:07:58;;;;;;;10.65;7.90;;;20.40;36.90;;;;;;5039494;28;20111;-54
2023/02/15 02:10:25;;;;;;;9.35;8.07;;;20.30;36.80;;;;;;5039595;28;20040;-52
2023/02/15 02:12:55;;;;;;;9.10;7.53;;;20.30;36.80;;;;;;5037901;28;20353;-53
2023/02/15 02:15:29;;;;;;;8.50;7.10;;;20.40;36.80;;;;;;5020617;28;20080;-49
2023/02/15 02:18:20;;;;;;;8.98;7.25;;;20.40;36.80;;;;;;5052449;28;20036;-50
2023/02/15 02:21:05;;;;;;;9.00;6.93;;;20.30;36.70;;;;;;5053155;28;20032;-52
2023/02/15 02:24:06;;;;;;;8.95;7.25;;;20.30;36.70;;;;;;5036916;28;20468;-53
2023/02/15 02:26:59;;;;;;;8.80;6.70;;;20.30;36.80;;;;;;5011080;28;20068;-53
2023/02/15 02:29:43;;;;;;;13.05;7.90;;;20.30;36.70;;;;;;5053060;28;20043;-49
2023/02/15 02:32:50;;;;;;;8.93;7.18;;;20.30;36.70;;;;;;5052009;28;20123;-54
2023/02/15 02:35:29;;;;;;;8.73;6.97;;;20.30;36.70;;;;;;5046493;28;20052;-53
2023/02/15 02:38:09;;;;;;;8.55;6.82;;;20.30;36.70;;;;;;5036060;28;20033;-52
2023/02/15 02:41:07;;;;;;;9.20;7.05;;;20.30;36.60;;;;;;5036881;28;20040;-49
2023/02/15 02:43:56;;;;;;;8.68;7.10;;;20.30;36.60;;;;;;5038865;28;20440;-49
2023/02/15 02:46:32;;;;;;;9.35;7.18;;;20.30;36.60;;;;;;5051254;28;20025;-50
2023/02/15 02:48:58;;;;;;;9.55;6.28;;;20.30;36.50;;;;;;5055207;28;20039;-53
2023/02/15 02:51:26;;;;;;;10.55;7.05;;;20.20;36.50;;;;;;5053348;28;20033;-54
2023/02/15 02:53:56;;;;;;;8.30;6.28;;;20.20;36.40;;;;;;5053521;28;20025;-53
2023/02/15 02:56:43;;;;;;;8.38;7.07;;;20.20;36.40;;;;;;5054114;28;20036;-53
2023/02/15 02:59:18;;;;;;;8.68;6.95;;;20.20;36.40;;;;;;5055773;28;20025;-53
2023/02/15 03:02:02;;;;;;;8.43;6.97;;;20.20;36.30;;;;;;5027765;28;20040;-51
2023/02/15 03:04:32;;;;;;;8.32;6.60;;;20.20;36.30;;;;;;5033512;28;20045;-48
2023/02/15 03:07:06;;;;;;;7.60;6.50;;;20.20;36.30;;;;;;5034456;28;20025;-53
2023/02/15 03:09:43;;;;;;;7.75;6.65;;;20.20;36.30;;;;;;5055477;28;20033;-51
2023/02/15 03:12:21;;;;;;;7.80;6.57;;;20.20;36.30;;;;;;5041560;28;20033;-52
2023/02/15 03:14:55;;;;;;;7.45;6.65;;;20.20;36.30;;;;;;5041825;28;20094;-54
2023/02/15 03:17:26;;;;;;;8.35;6.55;;;20.20;36.30;;;;;;5052377;28;20115;-54
2023/02/15 03:19:55;;;;;;;7.10;6.30;;;20.20;36.20;;;;;;5054623;28;20452;-49
2023/02/15 03:22:33;;;;;;;8.82;6.30;;;20.20;36.20;;;;;;5040939;28;20044;-52
2023/02/15 03:25:07;;;;;;;8.48;6.22;;;20.20;36.20;;;;;;5035429;28;20036;-53
2023/02/15 03:27:49;;;;;;;6.78;6.03;;;20.20;36.20;;;;;;5048039;28;20120;-52
2023/02/15 03:30:18;;;;;;;7.40;6.35;;;20.10;36.20;;;;;;5041850;28;20131;-53
2023/02/15 03:32:48;;;;;;;7.68;6.13;;;20.20;36.20;;;;;;5057925;28;20040;-51
2023/02/15 03:35:14;;;;;;;8.10;6.32;;;20.10;36.10;;;;;;5055361;28;20035;-54
2023/02/15 03:37:57;;;;;;;8.32;6.47;;;20.10;36.10;;;;;;5053665;28;20025;-54
2023/02/15 03:43:39;;;;;;;7.50;6.20;;;20.10;36.00;;;;;;5055996;28;20040;-53
2023/02/15 03:46:11;;;;;;;8.40;5.97;;;20.10;36.00;;;;;;5055778;28;20028;-54
2023/02/15 03:48:41;;;;;;;7.40;5.65;;;20.10;36.00;;;;;;5057223;28;20028;-54
2023/02/15 03:51:35;;;;;;;6.13;5.53;;;20.10;35.90;;;;;;5054391;28;20074;-54
2023/02/15 03:54:06;;;;;;;6.93;5.57;;;20.10;35.90;;;;;;5060570;28;20214;-53
2023/02/15 03:56:36;;;;;;;6.53;5.72;;;20.10;35.90;;;;;;5054167;28;20349;-51
2023/02/15 04:02:21;;;;;;;7.47;5.70;;;20.10;35.90;;;;;;5057459;28;20123;-51
2023/02/15 04:04:47;;;;;;;7.40;5.63;;;20.10;35.90;;;;;;5054738;28;20033;-53
2023/02/15 04:07:13;;;;;;;6.88;5.55;;;20.10;35.90;;;;;;5055447;28;20096;-54
2023/02/15 04:12:24;;;;;;;6.78;5.45;;;20.10;35.90;;;;;;5053211;28;20073;-52
2023/02/15 04:17:36;;;;;;;6.70;5.18;;;20.10;35.90;;;;;;5053351;28;20029;-52
2023/02/15 04:25:31;;;;;;;7.28;5.72;;;20.00;35.80;;;;;;5057295;28;20043;-54
2023/02/15 04:27:57;;;;;;;7.22;5.55;;;20.00;35.70;;;;;;5058106;28;20017;-53
2023/02/15 04:30:24;;;;;;;6.60;5.30;;;20.00;35.70;;;;;;5055474;28;20502;-53
2023/02/15 04:32:51;;;;;;;6.63;5.32;;;20.00;35.80;;;;;;5052224;28;20075;-50
2023/02/15 04:35:17;;;;;;;6.80;5.25;;;20.00;35.70;;;;;;5059294;28;20052;-54
2023/02/15 04:37:43;;;;;;;6.43;4.65;;;20.00;35.70;;;;;;5054357;28;20036;-50
2023/02/15 04:40:12;;;;;;;7.35;5.78;;;20.00;35.70;;;;;;5054910;28;20024;-53
2023/02/15 04:42:38;;;;;;;7.38;4.82;;;20.00;35.80;;;;;;5055091;28;20033;-54
2023/02/15 04:45:04;;;;;;;6.00;5.07;;;20.00;35.80;;;;;;5059190;28;20040;-51
2023/02/15 04:47:30;;;;;;;7.00;5.30;;;20.00;35.70;;;;;;5056148;28;20054;-54
2023/02/15 04:49:56;;;;;;;6.15;5.00;;;20.00;35.70;;;;;;5056752;28;20043;-54
2023/02/15 04:52:22;;;;;;;6.75;5.70;;;20.00;35.80;;;;;;5057805;28;20036;-53
2023/02/15 04:54:47;;;;;;;5.40;4.65;;;20.00;35.70;;;;;;5041282;28;20047;-52
2023/02/15 04:57:13;;;;;;;6.88;5.28;;;20.00;35.70;;;;;;5053909;28;20028;-52
2023/02/15 04:59:39;;;;;;;6.88;5.30;;;20.00;35.60;;;;;;5053594;28;20029;-53
2023/02/15 05:02:05;;;;;;;6.80;5.00;;;19.90;35.60;;;;;;5056441;28;20089;-53
2023/02/15 05:04:31;;;;;;;5.65;4.72;;;20.00;35.70;;;;;;5053942;28;20446;-53
2023/02/15 05:06:57;;;;;;;7.13;5.10;;;20.00;35.70;;;;;;5056531;28;20028;-54
2023/02/15 05:09:23;;;;;;;7.38;5.00;;;19.90;35.60;;;;;;5056235;28;20045;-55
2023/02/15 05:11:48;;;;;;;6.65;4.95;;;19.90;35.60;;;;;;5056737;28;20045;-53
2023/02/15 05:14:14;;;;;;;6.05;5.10;;;19.90;35.60;;;;;;5055736;28;20062;-53
2023/02/15 05:16:40;;;;;;;6.28;5.00;;;19.90;35.60;;;;;;5035299;28;20384;-53
2023/02/15 05:19:06;;;;;;;7.47;5.32;;;19.90;35.60;;;;;;5053036;28;20037;-56
2023/02/15 05:21:32;;;;;;;5.30;4.53;;;19.90;35.60;;;;;;5051881;28;20104;-54
2023/02/15 05:23:58;;;;;;;6.57;4.70;;;19.90;35.60;;;;;;5055076;28;20135;-55
2023/02/15 05:29:10;;;;;;;6.03;4.72;;;19.90;35.50;;;;;;5054217;28;20125;-54
2023/02/15 05:31:36;;;;;;;5.68;4.40;;;19.90;35.50;;;;;;5054337;28;20032;-52
2023/02/15 05:34:03;;;;;;;7.30;5.00;;;19.90;35.50;;;;;;5054937;28;20025;-56
2023/02/15 05:36:29;;;;;;;5.55;4.53;;;19.90;35.50;;;;;;5055219;28;20033;-55
2023/02/15 05:38:55;;;;;;;5.65;4.25;;;19.90;35.40;;;;;;5055866;28;20086;-54
2023/02/15 05:41:21;;;;;;;6.43;4.65;;;19.90;35.40;;;;;;5053746;28;20044;-54
2023/02/15 05:43:47;;;;;;;5.95;4.72;;;19.90;35.40;;;;;;5050967;28;20024;-51
2023/02/15 05:46:13;;;;;;;6.03;5.10;;;19.90;35.40;;;;;;5055565;28;20063;-52
2023/02/15 05:48:38;;;;;;;6.15;4.25;;;19.90;35.30;;;;;;5056442;28;20024;-52
2023/02/15 05:51:05;;;;;;;5.68;4.43;;;19.90;35.30;;;;;;5053353;28;20085;-51
2023/02/15 05:53:34;;;;;;;5.47;4.47;;;19.90;35.30;;;;;;5052620;28;20032;-55
2023/02/15 05:56:02;;;;;;;5.70;4.53;;;19.90;35.20;;;;;;5056754;28;20403;-56
2023/02/15 05:58:39;;;;;;;5.72;4.72;;;19.80;35.20;;;;;;5052512;28;20398;-55
2023/02/15 06:01:12;;;;;;;6.22;4.53;;;19.80;35.20;;;;;;5052075;28;20021;-56
2023/02/15 06:03:38;;;;;;;5.18;4.53;;;19.80;35.20;;;;;;5035722;28;20037;-56
2023/02/15 06:06:05;;;;;;;5.85;4.20;;;19.80;35.20;;;;;;5052670;28;20510;-50
2023/02/15 06:08:32;;;;;;;6.07;4.65;;;19.80;35.20;;;;;;5052155;28;20024;-52
2023/02/15 06:10:57;;;;;;;7.18;4.05;;;19.80;35.20;;;;;;5056781;28;20123;-53
2023/02/15 06:13:23;;;;;;;6.70;4.80;;;19.80;35.10;;;;;;5034535;28;20128;-53
2023/02/15 06:15:49;;;;;;;5.82;4.60;;;19.80;35.10;;;;;;5052416;28;20447;-52
2023/02/15 06:18:15;;;;;;;5.68;4.88;;;19.80;35.10;;;;;;5040867;28;20076;-55
2023/02/15 06:20:41;;;;;;;6.13;4.53;;;19.80;35.10;;;;;;5052790;28;20360;-53
2023/02/15 06:23:07;;;;;;;5.68;4.05;;;19.80;35.10;;;;;;5035103;28;20052;-54
2023/02/15 06:25:32;;;;;;;5.00;4.50;;;19.80;35.10;;;;;;5054074;28;20057;-51
2023/02/15 06:27:58;;;;;;;6.25;4.90;;;19.80;35.10;;;;;;5054108;28;20484;-54
2023/02/15 06:30:24;;;;;;;6.07;4.75;;;19.80;35.10;;;;;;5052244;28;20072;-53
2023/02/15 06:32:50;;;;;;;5.68;4.50;;;19.80;35.10;;;;;;5052894;28;20083;-53
2023/02/15 06:35:16;;;;;;;6.82;4.80;;;19.80;35.10;;;;;;5052668;28;20025;-51
2023/02/15 06:37:42;;;;;;;6.03;4.65;;;19.70;35.00;;;;;;5033818;28;20048;-53
2023/02/15 06:40:08;;;;;;;6.93;5.00;;;19.80;35.10;;;;;;5054222;28;20021;-55
2023/02/15 06:42:34;;;;;;;5.82;4.75;;;19.70;34.90;;;;;;5053885;28;20035;-55
2023/02/15 06:45:00;;;;;;;6.57;4.90;;;19.70;34.90;;;;;;5057181;28;20028;-50
2023/02/15 06:47:26;;;;;;;6.13;4.40;;;19.70;34.90;;;;;;5055688;28;20852;-54
2023/02/15 06:49:52;;;;;;;6.15;4.63;;;19.70;34.80;;;;;;5055646;28;20048;-53
2023/02/15 06:52:17;;;;;;;6.40;5.30;;;19.70;34.80;;;;;;5034194;28;20116;-54
2023/02/15 06:54:43;;;;;;;5.18;4.20;;;19.80;35.00;;;;;;5054772;28;20029;-53
2023/02/15 06:57:09;;;;;;;5.43;4.20;;;19.70;34.90;;;;;;5057166;28;20060;-53
2023/02/15 06:59:35;;;;;;;6.75;4.50;;;19.70;34.90;;;;;;5057175;28;20029;-55
2023/02/15 07:02:01;;;;;;;5.82;4.40;;;19.70;34.90;;;;;;5060453;28;20124;-54
2023/02/15 07:04:29;;;;;;;6.07;4.78;;;19.70;34.90;;;;;;5057542;28;20094;-53
2023/02/15 07:06:55;;;;;;;6.38;4.68;;;19.70;34.90;;;;;;5058376;28;20058;-51
2023/02/15 07:09:22;;;;;;;4.80;3.95;;;19.70;34.90;;;;;;5055229;28;20111;-50
2023/02/15 07:14:32;;;;;;;5.05;4.20;;;19.70;34.90;;;;;;5058502;28;20044;-52
2023/02/15 07:16:59;;;;;;;5.32;4.20;;;19.70;34.90;;;;;;5060418;28;20048;-50
2023/02/15 07:19:25;;;;;;;5.65;4.40;;;19.70;34.80;;;;;;5059429;28;20058;-54
2023/02/15 07:21:51;;;;;;;6.32;4.68;;;19.70;34.70;;;;;;5060241;28;20429;-51
2023/02/15 07:24:17;;;;;;;5.45;4.35;;;19.70;34.70;;;;;;5058389;28;20033;-51
2023/02/15 07:26:43;;;;;;;5.40;4.60;;;19.70;34.60;;;;;;5058097;28;20490;-52
2023/02/15 07:29:09;;;;;;;6.22;4.68;;;19.60;34.60;;;;;;5055621;28;20029;-52
2023/02/15 07:31:34;;;;;;;7.55;5.10;;;19.70;34.70;;;;;;5056878;28;21138;-52
2023/02/15 07:34:00;;;;;;;7.00;5.55;;;19.70;34.70;;;;;;5055504;28;20048;-50
2023/02/15 07:36:26;;;;;;;6.10;5.50;;;19.70;34.70;;;;;;5055624;28;20044;-52
2023/02/15 07:38:52;;;;;;;6.60;5.18;;;19.70;34.60;;;;;;5057587;28;20029;-54
2023/02/15 07:41:18;;;;;;;7.18;5.20;;;19.70;34.50;;;;;;5059011;28;20488;-53
2023/02/15 07:43:45;;;;;;;7.05;5.47;;;19.70;34.50;;;;;;5039213;28;20041;-52
2023/02/15 07:46:14;;;;;;;7.90;5.50;;;19.70;34.50;;;;;;5058618;28;20028;-53
2023/02/15 07:48:41;;;;;;;7.05;5.80;;;19.70;34.50;;;;;;5057957;28;20038;-52
2023/02/15 07:51:09;;;;;;;6.38;5.50;;;19.70;34.50;;;;;;5059715;28;20184;-53
2023/02/15 07:53:35;;;;;;;6.90;5.63;;;19.70;34.50;;;;;;5062060;28;20028;-50
2023/02/15 07:56:03;;;;;;;7.40;5.82;;;19.70;34.50;;;;;;5062851;28;20055;-52
2023/02/15 08:01:15;;;;;;;7.97;6.72;;;19.80;34.50;;;;;;5066050;28;20414;-49
2023/02/15 08:03:41;;;;;;;8.52;6.05;;;19.80;34.50;;;;;;5045809;28;20032;-53
2023/02/15 08:06:07;;;;;;;9.25;6.32;;;19.90;34.60;;;;;;5056757;28;20020;-51
2023/02/15 08:08:37;;;;;;;8.05;6.72;;;19.90;34.50;;;;;;5056652;28;20060;-52
2023/02/15 08:14:02;;;;;;;11.70;7.15;;;20.00;34.50;;;;;;5057540;28;20024;-52
2023/02/15 08:16:30;;;;;;;10.25;7.60;;;20.00;34.70;;;;;;5061077;28;20045;-50
2023/02/15 08:18:58;;;;;;;9.82;7.43;;;20.10;34.80;;;;;;5055004;28;20132;-53
2023/02/15 08:21:27;;;;;;;10.02;7.72;;;20.10;34.80;;;;;;5059965;28;20024;-53
2023/02/15 08:23:54;;;;;;;10.32;7.82;;;20.10;34.80;;;;;;5055202;28;20025;-55
2023/02/15 08:26:20;;;;;;;9.32;7.22;;;20.20;34.70;;;;;;5056272;28;20350;-54
2023/02/15 08:28:46;;;;;;;9.98;8.07;;;20.20;34.60;;;;;;5045189;28;20024;-52
2023/02/15 08:31:13;;;;;;;10.68;8.77;;;20.20;34.50;;;;;;5055383;28;20653;-54
2023/02/15 08:33:41;;;;;;;9.18;7.57;;;20.30;34.70;;;;;;5059576;28;20888;-53
2023/02/15 08:36:13;;;;;;;9.88;8.07;;;20.30;34.80;;;;;;5057574;28;20017;-53
2023/02/15 08:38:40;;;;;;;9.23;7.65;;;20.30;34.70;;;;;;5065030;28;20033;-54
2023/02/15 08:41:11;;;;;;;10.40;8.13;;;20.40;34.60;;;;;;5060650;28;20078;-54
2023/02/15 08:43:37;;;;;;;10.68;8.27;;;20.40;34.50;;;;;;5065608;28;20033;-55
2023/02/15 08:46:03;;;;;;;11.02;7.43;;;20.40;34.40;;;;;;5059710;28;20101;-51
2023/02/15 08:48:29;;;;;;;10.63;8.32;;;20.50;34.40;;;;;;5057081;28;20020;-49
2023/02/15 08:50:55;;;;;;;9.35;8.30;;;20.50;34.30;;;;;;5058502;28;21445;-52
2023/02/15 08:53:21;;;;;;;10.32;8.20;;;20.50;34.20;;;;;;5064102;28;20044;-56
2023/02/15 08:55:54;;;;;;;11.48;8.60;;;20.50;34.10;;;;;;5064087;28;20020;-55
2023/02/15 08:58:20;;;;;;;10.88;8.57;;;20.60;34.10;;;;;;5063931;28;20452;-55
2023/02/15 09:00:46;;;;;;;10.52;8.05;;;20.60;34.10;;;;;;5062631;28;20020;-53
2023/02/15 09:03:12;;;;;;;9.45;7.97;;;20.60;34.10;;;;;;5062379;28;20436;-54
2023/02/15 09:05:38;;;;;;;9.70;7.75;;;20.60;34.00;;;;;;5064226;28;20025;-54
2023/02/15 09:08:04;;;;;;;11.52;8.73;;;20.60;34.00;;;;;;5062298;28;20108;-53
2023/02/15 09:10:30;;;;;;;9.82;8.10;;;20.70;34.00;;;;;;5064746;28;20128;-55
2023/02/15 09:12:56;;;;;;;9.65;8.65;;;20.60;33.90;;;;;;5064375;28;20039;-55
2023/02/15 09:15:22;;;;;;;10.68;8.43;;;20.70;33.90;;;;;;5061635;28;20041;-56
2023/02/15 09:17:47;;;;;;;10.57;8.85;;;20.70;33.90;;;;;;5062496;28;20025;-53
2023/02/15 09:20:13;;;;;;;11.50;9.18;;;20.70;33.80;;;;;;5063172;28;20025;-56
2023/02/15 09:22:39;;;;;;;11.13;8.55;;;20.70;33.80;;;;;;5064573;28;20374;-54
2023/02/15 09:25:05;;;;;;;11.20;9.00;;;20.70;33.80;;;;;;5066203;28;20348;-54
2023/02/15 09:27:31;;;;;;;11.30;9.18;;;20.70;33.80;;;;;;5048920;28;20037;-54
2023/02/15 09:29:57;;;;;;;10.88;8.77;;;20.70;33.80;;;;;;5063590;28;20033;-50
2023/02/15 09:32:23;;;;;;;10.10;8.40;;;20.70;33.80;;;;;;5063532;28;20017;-55
2023/02/15 09:34:48;;;;;;;10.90;8.73;;;20.70;33.80;;;;;;5063079;28;20427;-56
2023/02/15 09:37:14;;;;;;;9.48;8.00;;;20.70;33.80;;;;;;5059488;28;20056;-55
2023/02/15 09:39:43;;;;;;;11.73;9.00;;;20.70;33.80;;;;;;5061591;28;20060;-55
2023/02/15 09:42:37;;;;;;;10.65;8.73;;;20.70;33.80;;;;;;5061975;28;20123;-56
2023/02/15 09:45:18;;;;;;;12.05;9.38;;;20.70;33.80;;;;;;5063977;28;20028;-54
2023/02/15 09:47:49;;;;;;;10.98;8.68;;;20.70;33.90;;;;;;5062507;28;20040;-56
2023/02/15 09:50:43;;;;;;;11.10;9.38;;;20.70;33.90;;;;;;5065726;28;20375;-55
2023/02/15 09:53:12;;;;;;;11.45;9.27;;;20.70;33.90;;;;;;5061688;28;20045;-54
2023/02/15 09:56:19;;;;;;;12.13;9.65;;;20.70;33.90;;;;;;5063009;28;20028;-55
2023/02/15 09:58:52;;;;;;;13.02;10.18;;;20.70;33.90;;;;;;5063217;28;20051;-55
2023/02/15 10:01:28;;;;;;;10.75;9.55;;;20.70;33.90;;;;;;5060026;28;20024;-54
2023/02/15 10:04:08;;;;;;;11.18;9.45;;;20.70;34.00;;;;;;5061893;28;20111;-56
2023/02/15 10:06:49;;;;;;;11.68;9.82;;;20.70;33.90;;;;;;5059295;28;20110;-54
2023/02/15 10:09:36;;;;;;;14.52;11.43;;;20.60;33.90;;;;;;5060988;28;20401;-56
2023/02/15 10:12:33;;;;;;;14.82;12.13;;;20.70;34.10;;;;;;5063616;28;20020;-54
2023/02/15 10:15:14;;;;;;;16.92;13.35;;;20.70;34.30;;;;;;5058936;28;20041;-55
2023/02/15 10:18:17;;;;;;;18.40;12.95;;;20.70;34.30;;;;;;5062507;28;20033;-52
2023/02/15 10:21:20;;;;;;;16.05;12.30;;;20.70;34.30;;;;;;5058875;28;20021;-54
2023/02/15 10:24:04;;;;;;;18.38;13.43;;;20.70;34.30;;;;;;5061762;28;20456;-53
2023/02/15 10:26:43;;;;;;;15.20;12.35;;;20.70;34.30;;;;;;5057579;28;20028;-52
2023/02/15 10:29:20;;;;;;;15.52;12.60;;;20.70;34.30;;;;;;5061136;28;20425;-51
2023/02/15 10:32:15;;;;;;;13.93;11.77;;;20.80;34.30;;;;;;5060469;28;20029;-51
2023/02/15 10:34:56;;;;;;;14.80;12.20;;;20.70;34.30;;;;;;5059545;28;20037;-53
2023/02/15 10:37:43;;;;;;;15.77;12.65;;;20.80;34.30;;;;;;5062351;28;20024;-49
2023/02/15 10:40:15;;;;;;;14.35;11.77;;;20.70;34.30;;;;;;5059785;28;20346;-55
2023/02/15 10:43:09;;;;;;;17.40;13.93;;;20.80;34.30;;;;;;5060902;28;20091;-56
2023/02/15 10:45:41;;;;;;;15.20;12.77;;;20.80;34.40;;;;;;5062734;28;20043;-55
2023/02/15 10:48:16;;;;;;;15.18;12.75;;;20.80;34.40;;;;;;5062543;28;20035;-54
2023/02/15 10:50:46;;;;;;;17.73;13.00;;;20.80;34.40;;;;;;5061672;28;20044;-51
2023/02/15 10:53:27;;;;;;;16.48;12.90;;;20.80;34.50;;;;;;5061665;28;20115;-55
2023/02/15 10:56:01;;;;;;;16.35;12.65;;;20.80;34.50;;;;;;5063128;28;20052;-54
2023/02/15 10:59:22;;;;;;;15.20;12.13;;;20.80;34.40;;;;;;5062176;28;20024;-54
2023/02/15 11:01:47;;;;;;;16.38;13.20;;;20.80;34.40;;;;;;4981431;28;20041;-54
2023/02/15 11:04:28;;;;;;;15.50;12.48;;;20.80;34.40;;;;;;5046021;28;20028;-52
2023/02/15 11:06:59;;;;;;;15.75;12.93;;;20.80;34.40;;;;;;5059822;28;20449;-54
2023/02/15 11:09:33;;;;;;;17.75;13.38;;;20.80;34.40;;;;;;5063710;28;20349;-52
2023/02/15 11:12:00;;;;;;;16.10;13.38;;;20.80;34.40;;;;;;5057481;28;20036;-50
2023/02/15 11:14:58;;;;;;;15.45;13.20;;;20.80;34.40;;;;;;5048795;28;20028;-50
2023/02/15 11:17:38;;;;;;;16.15;13.05;;;20.80;34.40;;;;;;5032915;28;20645;-58
2023/02/15 11:20:36;;;;;;;16.98;13.57;;;20.80;34.40;;;;;;5056702;28;20040;-56
2023/02/15 11:23:02;;;;;;;18.30;14.48;;;20.80;34.50;;;;;;5061123;28;20355;-55
2023/02/15 11:25:34;;;;;;;16.70;12.85;;;20.80;34.50;;;;;;5062723;28;20464;-54
2023/02/15 11:28:05;;;;;;;17.58;13.88;;;20.80;34.50;;;;;;5058940;28;20075;-57
2023/02/15 11:30:44;;;;;;;18.05;14.27;;;20.90;34.60;;;;;;5060779;28;20119;-53
2023/02/15 11:33:39;;;;;;;17.02;13.95;;;20.90;34.60;;;;;;5061351;28;20112;-55
2023/02/15 11:36:08;;;;;;;;;;;20.80;34.50;;;;;;5061673;28;20138;-55
2023/02/15 11:38:34;;;;;;;16.35;13.18;;;20.80;34.50;;;;;;5061768;28;19920;-52
2023/02/15 11:41:11;;;;;;;17.48;13.77;;;20.90;34.50;;;;;;5060014;28;20495;-53
2023/02/15 11:43:54;;;;;;;17.20;13.65;;;20.90;34.50;;;;;;5061340;28;20111;-56
2023/02/15 11:46:21;;;;;;;33.10;25.60;;;20.90;34.50;;;;;;5057897;28;20025;-53
2023/02/15 11:48:47;;;;;;;44.42;32.45;;;20.80;35.60;;;;;;5059923;28;20595;-55
2023/02/15 11:51:20;;;;;;;45.40;36.00;;;20.90;37.00;;;;;;5057309;28;20041;-56
2023/02/15 11:53:47;;;;;;;52.65;37.80;;;20.90;37.90;;;;;;5057864;28;20029;-54
2023/02/15 11:56:18;;;;;;;47.90;36.50;;;21.00;38.40;;;;;;5060542;28;20025;-54
2023/02/15 11:59:03;;;;;;;48.97;37.45;;;20.90;38.70;;;;;;5058561;28;20117;-53
2023/02/15 12:01:36;;;;;;;47.33;36.38;;;21.00;39.00;;;;;;5057818;28;20368;-56
2023/02/15 12:04:14;;;;;;;46.53;37.13;;;21.00;39.00;;;;;;5062877;28;20451;-52
2023/02/15 12:07:11;;;;;;;43.08;35.97;;;21.00;39.10;;;;;;5051988;28;20025;-54
2023/02/15 12:09:49;;;;;;;47.05;35.65;;;21.00;39.10;;;;;;5037590;28;20044;-57
2023/02/15 12:12:28;;;;;;;43.22;33.58;;;21.00;39.00;;;;;;5056722;28;20472;-56
2023/02/15 12:14:58;;;;;;;41.22;33.72;;;21.00;38.70;;;;;;5047410;28;20479;-54
2023/02/15 12:17:27;;;;;;;38.03;30.63;;;21.00;38.60;;;;;;5077135;28;20044;-55
2023/02/15 12:19:57;;;;;;;42.17;31.60;;;21.00;38.30;;;;;;5076745;28;20060;-55
2023/02/15 12:22:27;;;;;;;40.63;29.65;;;21.00;38.00;;;;;;5076790;28;20037;-53
2023/02/15 12:24:56;;;;;;;39.03;28.33;;;21.00;38.30;;;;;;5074452;28;20093;-53
2023/02/15 12:27:26;;;;;;;33.95;27.02;;;21.00;37.40;;;;;;5055800;28;20037;-53
2023/02/15 12:29:59;;;;;;;33.25;26.27;;;21.00;37.20;;;;;;5055641;28;20095;-52
2023/02/15 12:32:28;;;;;;;32.40;24.77;;;21.00;36.90;;;;;;5056119;28;20116;-52
2023/02/15 12:35:20;;;;;;;32.15;24.98;;;21.00;36.70;;;;;;5056554;28;20075;-55
2023/02/15 12:38:03;;;;;;;28.30;22.58;;;21.00;36.50;;;;;;5052027;28;20045;-56
2023/02/15 12:40:33;;;;;;;29.33;22.95;;;21.00;36.40;;;;;;5056668;28;20031;-53
2023/02/15 12:43:00;;;;;;;29.67;21.90;;;21.00;36.20;;;;;;5056601;28;20059;-56
2023/02/15 12:45:34;;;;;;;27.15;20.92;;;21.00;36.80;;;;;;5056716;28;20021;-54
2023/02/15 12:48:20;;;;;;;29.25;21.23;;;21.00;36.00;;;;;;5055841;28;20041;-55
2023/02/15 12:50:48;;;;;;;26.38;19.40;;;21.00;35.80;;;;;;5056344;28;20076;-52
2023/02/15 12:53:32;;;;;;;25.20;19.60;;;21.00;35.70;;;;;;5055838;28;20044;-54
2023/02/15 12:56:00;;;;;;;27.10;20.10;;;21.00;35.60;;;;;;5056312;28;20032;-54
2023/02/15 12:58:39;;;;;;;23.38;18.80;;;21.00;35.60;;;;;;5056133;28;20116;-55
2023/02/15 13:01:16;;;;;;;22.77;18.23;;;20.90;35.40;;;;;;5056495;28;20025;-55
2023/02/15 13:04:13;;;;;;;21.73;17.48;;;20.90;35.40;;;;;;5055938;28;20033;-56
2023/02/15 13:06:48;;;;;;;21.13;17.17;;;20.90;35.30;;;;;;5055669;28;20072;-55
2023/02/15 13:09:19;;;;;;;20.45;16.80;;;20.90;35.20;;;;;;5056902;28;20032;-56
2023/02/15 13:11:46;;;;;;;22.08;17.38;;;20.90;35.20;;;;;;5065132;28;20103;-54
2023/02/15 13:14:28;;;;;;;22.60;16.85;;;20.90;35.20;;;;;;5060465;28;20037;-55
2023/02/15 13:16:58;;;;;;;21.88;17.00;;;20.90;35.10;;;;;;5055661;28;20067;-53
2023/02/15 13:19:36;;;;;;;21.75;16.33;;;20.90;35.10;;;;;;5055711;28;20063;-55
2023/02/15 13:22:10;;;;;;;20.63;15.85;;;20.80;35.00;;;;;;5058947;28;20068;-52
2023/02/15 13:24:41;;;;;;;17.80;15.18;;;20.90;35.00;;;;;;5056170;28;20048;-56
2023/02/15 13:27:17;;;;;;;17.83;14.80;;;20.80;34.90;;;;;;5056608;28;20025;-54
2023/02/15 13:30:13;;;;;;;20.25;15.38;;;20.80;34.90;;;;;;5055844;28;20033;-56